Pagrindinis puslapis
METAR-TAF:

METAR-TAF

Oro uostai :

Pian Rosa, Italija

platuma: 45-56N, ilguma: 007-42E, Aukštis: 3480 m

Dabartinis oras

Ataskaita buvo paskelbta 25 minutes, ne 04:55 UTC
Vėjas 22 kt iš Šiaurės/Šiaurės Vakarų su gūsio iki 46 kt
Temperatūra -1°C
Drėgmė 69%
Slėgis 1032 hPa
Matomumas 10 km arba daugiau
nėra debesų žemiau 1500 m ir nėra kamuolinių lietaus debesų

METAR: LIMH 230455Z 33022G46KT CAVOK M01/M06 Q1032 RMK FEW FEW100 MON LIB VAL NIL VIS MIN 9999

Laikas: 06:20 (05:20 UTC)


TAF: trūkstamas

Orai ataskaitas ir orų prognozės (METAR, TAF).

turimą stotys yra geltonos ir raudonos taškus žemėlapyje.

Perkelti pele per norėdami pamatyti stoties vardą.

Tada spustelėkite, norėdami matyti oro stebėjimo ir prognozės.

Norėdami pakeisti žemėlapį: spustelėkite ant žalios mygtukų su juodo kryžiaus žemyn,; žalią mygtuką su brūkšneliu, jei norite nutolinti; arba žalių rodyklių gretimoms žemėlapius.


METAR-TAF: